»·PEaware :: N900FT KLAX-KSNA

N900FT :: KLAX-KSNA

FLIGHT INFORMATION

Flight Status: Arrived
Operator: Privately registered:
United States
More flights under this callsign
Pilot: Anonymous 26404 (26404)
Aircraft: SOCATA TBM-900
(TBM9)
More flights by this aircraft type
Origin: KLAX Los Angeles Intl
United States
Destination: KSNA John Wayne-Orange Co
United States
More flights between these airports :: More routes between these airports
Route: SLI8 SLI
File this flight plan on PilotEdge
Remarks: I-6
Altitude:
(Current/Filed)
4,000ft
Speed:
(Current/Filed)
200kts
Departed: 21-May-20 07:53 PM
Arrived: 21-May-20 08:24 PM
Distance/Time
Traveled:
31nm/0:31
Distance/Time
To Go:
Arrived

Flight Plot

Page will automatically refresh every two minutes.


Map Options




Map Legend


Flown Route
Filed Route
Departure Airport
Arrival Airport
Navaid (VOR, NDB)
Fix

Horizontal Profiles

Position Reports

Time Latitude Longitude Heading Altitude Ground
Speed
21-May-20 19:27 33.934098 -118.395551 174 105ft 0kts
21-May-20 19:28 33.934098 -118.395551 174 105ft 0kts
21-May-20 19:29 33.934098 -118.395551 174 105ft 0kts
21-May-20 19:30 33.934098 -118.395551 174 105ft 0kts
21-May-20 19:31 33.934098 -118.395551 174 105ft 0kts
21-May-20 19:32 33.934098 -118.395551 174 105ft 0kts
21-May-20 19:33 33.934098 -118.395551 174 105ft 0kts
21-May-20 19:34 33.934098 -118.395551 174 105ft 0kts
21-May-20 19:35 33.934098 -118.395551 174 105ft 0kts
21-May-20 19:36 33.934098 -118.395551 174 105ft 0kts
21-May-20 19:37 33.934229 -118.395571 172 105ft 1kts
21-May-20 19:38 33.934254 -118.395575 172 105ft 0kts
21-May-20 19:39 33.934254 -118.395575 172 105ft 0kts
21-May-20 19:40 33.934254 -118.395575 172 105ft 0kts
21-May-20 19:41 33.934250 -118.395741 3 105ft 0kts
21-May-20 19:42 33.934250 -118.395741 3 105ft 0kts
21-May-20 19:43 33.934250 -118.395741 3 105ft 0kts
21-May-20 19:44 33.934250 -118.395741 3 105ft 0kts
21-May-20 19:45 33.935060 -118.393136 82 102ft 31kts
21-May-20 19:46 33.935787 -118.385905 83 98ft 16kts
21-May-20 19:47 33.936060 -118.383339 79 96ft 0kts
21-May-20 19:48 33.936418 -118.382846 9 95ft 0kts
21-May-20 19:49 33.937282 -118.383448 258 95ft 0kts
21-May-20 19:50 33.937282 -118.383448 258 95ft 0kts
21-May-20 19:51 33.937282 -118.383448 258 95ft 0kts
21-May-20 19:52 33.936122 -118.396181 264 369ft 122kts
21-May-20 19:53 33.931326 -118.436961 263 3107ft 124kts
21-May-20 19:54 33.901440 -118.470136 213 3934ft 181kts
21-May-20 19:55 33.852918 -118.481550 152 3926ft 201kts
21-May-20 19:56 33.807010 -118.450224 152 3907ft 182kts
21-May-20 19:57 33.770503 -118.413142 121 4001ft 173kts
21-May-20 19:59 33.743332 -118.361359 122 3998ft 183kts
21-May-20 20:00 33.715246 -118.307782 121 3996ft 185kts
21-May-20 20:01 33.687181 -118.254227 121 3987ft 187kts
21-May-20 20:02 33.700101 -118.204147 47 3984ft 177kts
21-May-20 20:03 33.728183 -118.154948 52 3999ft 178kts
21-May-20 20:04 33.754946 -118.106340 52 3998ft 178kts
21-May-20 20:05 33.777637 -118.065069 52 3998ft 178kts
21-May-20 20:06 33.799485 -118.014596 60 3998ft 180kts
21-May-20 20:07 33.823577 -117.954721 60 3998ft 180kts
21-May-20 20:08 33.845481 -117.900192 60 3998ft 180kts
21-May-20 20:09 33.866939 -117.846691 60 3998ft 180kts
21-May-20 20:10 33.889240 -117.790988 60 3999ft 180kts
21-May-20 20:11 33.911054 -117.736382 60 3995ft 162kts
21-May-20 20:12 33.937864 -117.699632 22 3991ft 137kts
21-May-20 20:13 33.971926 -117.684720 339 4007ft 125kts
21-May-20 20:14 33.971899 -117.721313 213 3663ft 154kts
21-May-20 20:15 33.927132 -117.720904 176 3492ft 153kts
21-May-20 20:16 33.888828 -117.732311 222 3500ft 139kts
21-May-20 20:17 33.854441 -117.755623 212 3500ft 142kts
21-May-20 20:17 33.830730 -117.770645 212 3347ft 153kts
21-May-20 20:19 33.788164 -117.797563 213 2403ft 125kts
21-May-20 20:20 33.757059 -117.817291 212 1753ft 127kts
21-May-20 20:20 33.731417 -117.833492 213 1191ft 104kts
21-May-20 20:21 33.707586 -117.848640 213 671ft 92kts
21-May-20 20:22 33.686362 -117.861992 213 236ft 78kts
21-May-20 20:23 33.674137 -117.870495 287 59ft 8kts
21-May-20 20:24 33.672362 -117.872440 208 59ft 11kts
21-May-20 20:25 33.672813 -117.872779 22 59ft 0kts
21-May-20 20:26 33.672813 -117.872779 22 59ft 0kts
21-May-20 20:27 33.672813 -117.872779 22 59ft 0kts
21-May-20 20:28 33.672813 -117.872779 22 59ft 0kts
21-May-20 20:29 33.672813 -117.872779 22 59ft 0kts
21-May-20 20:30 33.672813 -117.872779 22 59ft 0kts
21-May-20 20:31 33.672813 -117.872779 22 59ft 0kts
21-May-20 20:32 33.672813 -117.872779 22 59ft 0kts

Navigation Log

Ident Type
Flight plan parsing failed, navigation log unavailable